createdAt,value
2018-07-11T00:01:45.029Z,14.30
2018-07-11T00:04:12.989Z,14.30
2018-07-11T00:06:40.617Z,14.30
2018-07-11T00:09:08.237Z,14.20
2018-07-11T00:11:35.828Z,14.20
2018-07-11T00:14:03.529Z,14.20
2018-07-11T00:16:31.113Z,14.20
2018-07-11T00:18:58.732Z,14.20
2018-07-11T00:21:26.406Z,14.20
2018-07-11T00:23:54.237Z,14.10
2018-07-11T00:26:22.352Z,14.00
2018-07-11T00:28:50.015Z,13.90
2018-07-11T00:31:17.657Z,13.90
2018-07-11T00:33:45.272Z,13.90
2018-07-11T00:36:14.634Z,13.90
2018-07-11T00:38:42.813Z,13.90
2018-07-11T00:41:10.497Z,13.70
2018-07-11T00:43:38.209Z,13.70
2018-07-11T00:46:05.910Z,13.60
2018-07-11T00:48:34.193Z,13.60
2018-07-11T00:51:02.373Z,13.50
2018-07-11T00:53:31.189Z,13.50
2018-07-11T00:55:59.442Z,13.40
2018-07-11T00:58:30.088Z,13.40
2018-07-11T01:01:16.175Z,13.40
2018-07-11T01:03:53.022Z,13.40
2018-07-11T01:06:21.626Z,13.40
2018-07-11T01:09:04.110Z,13.30
2018-07-11T01:11:32.726Z,13.30
2018-07-11T01:14:00.484Z,13.30
2018-07-11T01:16:28.858Z,13.30
2018-07-11T01:19:05.583Z,13.30
2018-07-11T01:21:33.737Z,13.30
2018-07-11T01:24:01.371Z,13.30
2018-07-11T01:26:34.041Z,13.20
2018-07-11T01:29:01.989Z,13.20
2018-07-11T01:31:29.657Z,13.20
2018-07-11T01:33:57.714Z,13.20
2018-07-11T01:36:25.873Z,13.10
2018-07-11T01:38:53.866Z,13.10
2018-07-11T01:41:21.566Z,13.00
2018-07-11T01:43:49.268Z,12.90
2018-07-11T01:46:16.954Z,13.00
2018-07-11T01:48:45.121Z,12.90
2018-07-11T01:51:12.805Z,12.90
2018-07-11T01:53:40.501Z,12.90
2018-07-11T01:56:08.346Z,12.90
2018-07-11T01:58:36.345Z,12.90
2018-07-11T02:01:04.697Z,12.70
2018-07-11T02:03:32.765Z,12.90
2018-07-11T02:06:00.545Z,12.80
2018-07-11T02:08:28.821Z,12.80
2018-07-11T02:10:57.094Z,12.80
2018-07-11T02:13:25.152Z,12.80
2018-07-11T02:15:53.041Z,12.90
2018-07-11T02:18:25.365Z,12.90
2018-07-11T02:20:53.617Z,12.90
2018-07-11T02:23:21.465Z,12.90
2018-07-11T02:25:49.270Z,12.90
2018-07-11T02:28:16.953Z,12.90
2018-07-11T02:30:44.713Z,12.80
2018-07-11T02:33:12.377Z,12.70
2018-07-11T02:35:40.365Z,12.80
2018-07-11T02:38:08.027Z,12.80
2018-07-11T02:40:35.685Z,12.70
2018-07-11T02:43:03.326Z,12.70
2018-07-11T02:45:31.062Z,12.70
2018-07-11T02:47:58.777Z,12.70
2018-07-11T02:50:26.389Z,12.70
2018-07-11T02:52:54.166Z,12.60
2018-07-11T02:55:21.829Z,12.60
2018-07-11T02:57:49.509Z,12.60
2018-07-11T03:00:17.421Z,12.60
2018-07-11T03:02:45.590Z,12.70
2018-07-11T03:05:13.216Z,12.80
2018-07-11T03:07:40.980Z,12.80
2018-07-11T03:10:08.621Z,12.80
2018-07-11T03:12:36.229Z,12.80
2018-07-11T03:15:03.926Z,12.70
2018-07-11T03:17:32.241Z,12.80
2018-07-11T03:19:59.826Z,12.80
2018-07-11T03:22:27.453Z,12.70
2018-07-11T03:24:55.176Z,12.70
2018-07-11T03:27:22.863Z,12.70
2018-07-11T03:29:50.472Z,12.60
2018-07-11T03:32:18.750Z,12.60
2018-07-11T03:34:46.921Z,12.50
2018-07-11T03:37:15.281Z,12.50
2018-07-11T03:39:43.409Z,12.50
2018-07-11T03:42:11.069Z,12.50
2018-07-11T03:44:38.976Z,12.50
2018-07-11T03:47:06.644Z,12.50
2018-07-11T03:49:34.334Z,12.50
2018-07-11T03:52:02.990Z,12.50
2018-07-11T03:54:30.577Z,12.50
2018-07-11T03:59:25.690Z,12.50
2018-07-11T04:01:53.257Z,12.50
2018-07-11T04:04:21.021Z,12.50
2018-07-11T04:06:48.608Z,12.60
2018-07-11T04:09:16.203Z,12.60
2018-07-11T04:11:43.786Z,12.60
2018-07-11T04:14:11.885Z,12.50
2018-07-11T04:16:39.739Z,12.50
2018-07-11T04:19:07.368Z,12.50
2018-07-11T04:21:35.137Z,12.50
2018-07-11T04:24:02.969Z,12.50
2018-07-11T04:26:30.553Z,12.50
2018-07-11T04:28:58.190Z,12.50
2018-07-11T04:31:25.828Z,12.60
2018-07-11T04:33:54.969Z,12.70
2018-07-11T04:36:22.668Z,12.80
2018-07-11T04:38:50.426Z,12.70
2018-07-11T04:41:18.020Z,12.80
2018-07-11T04:43:45.709Z,12.80
2018-07-11T04:46:13.413Z,12.90
2018-07-11T04:48:41.339Z,12.90
2018-07-11T04:51:08.898Z,12.90
2018-07-11T04:53:36.565Z,13.00
2018-07-11T04:56:04.777Z,13.00
2018-07-11T04:58:32.841Z,13.10
2018-07-11T05:01:00.655Z,13.30
2018-07-11T05:03:28.538Z,13.50
2018-07-11T05:05:56.242Z,13.60
2018-07-11T05:08:24.405Z,13.60
2018-07-11T05:10:52.117Z,13.70
2018-07-11T05:13:19.861Z,13.60
2018-07-11T05:15:47.946Z,13.60
2018-07-11T05:18:15.658Z,13.70
2018-07-11T05:20:44.017Z,13.70
2018-07-11T05:23:15.748Z,13.70
2018-07-11T05:25:43.551Z,13.90
2018-07-11T05:28:11.097Z,14.00
2018-07-11T05:30:38.675Z,14.20
2018-07-11T05:33:06.282Z,14.20
2018-07-11T05:35:33.881Z,14.30
2018-07-11T05:38:02.770Z,14.40
2018-07-11T05:40:30.360Z,14.40
2018-07-11T05:42:57.923Z,14.60
2018-07-11T05:45:25.619Z,14.70
2018-07-11T05:47:53.422Z,14.80
2018-07-11T05:50:20.982Z,15.10
2018-07-11T05:52:48.626Z,15.00
2018-07-11T05:55:16.270Z,15.00
2018-07-11T05:57:43.906Z,15.20
2018-07-11T06:00:11.671Z,15.20
2018-07-11T06:02:39.305Z,15.20
2018-07-11T06:05:06.865Z,15.30
2018-07-11T06:07:35.308Z,15.30
2018-07-11T06:10:02.942Z,15.40
2018-07-11T06:12:30.507Z,15.40
2018-07-11T06:14:58.098Z,15.40
2018-07-11T06:17:25.714Z,15.60
2018-07-11T06:19:53.445Z,15.60
2018-07-11T06:22:21.027Z,15.80
2018-07-11T06:24:48.641Z,15.60
2018-07-11T06:27:16.257Z,15.80
2018-07-11T06:29:43.852Z,16.00
2018-07-11T06:32:11.395Z,16.00
2018-07-11T06:34:38.981Z,16.00
2018-07-11T06:37:06.790Z,15.90
2018-07-11T06:39:34.394Z,15.80
2018-07-11T06:42:02.002Z,15.80
2018-07-11T06:44:29.615Z,15.90
2018-07-11T06:46:57.258Z,16.00
2018-07-11T06:49:25.309Z,16.00
2018-07-11T06:51:52.907Z,16.00
2018-07-11T06:54:20.487Z,16.10
2018-07-11T06:56:48.028Z,16.20
2018-07-11T06:59:15.610Z,16.30
2018-07-11T07:01:43.334Z,16.40
2018-07-11T07:04:11.165Z,16.60
2018-07-11T07:06:38.817Z,16.80
2018-07-11T07:09:06.785Z,16.70
2018-07-11T07:11:34.465Z,16.70
2018-07-11T07:14:02.140Z,16.70
2018-07-11T07:16:29.990Z,16.70
2018-07-11T07:18:58.031Z,16.80
2018-07-11T07:21:25.601Z,16.70
2018-07-11T07:23:53.256Z,16.80
2018-07-11T07:26:21.280Z,16.70
2018-07-11T07:28:48.889Z,16.70
2018-07-11T07:31:16.465Z,16.80
2018-07-11T07:33:44.005Z,16.80
2018-07-11T07:36:11.677Z,16.80
2018-07-11T07:38:41.814Z,17.00
2018-07-11T07:41:09.852Z,16.90
2018-07-11T07:43:37.820Z,17.00
2018-07-11T07:46:05.501Z,17.20
2018-07-11T07:48:33.090Z,17.10
2018-07-11T07:51:00.733Z,17.20
2018-07-11T07:53:28.953Z,17.20
2018-07-11T07:55:59.921Z,17.50
2018-07-11T07:58:27.757Z,17.60
2018-07-11T08:00:55.378Z,17.80
2018-07-11T08:03:23.172Z,17.90
2018-07-11T08:05:50.761Z,17.90
2018-07-11T08:08:18.765Z,18.20
2018-07-11T08:10:46.398Z,18.30
2018-07-11T08:13:13.985Z,17.90
2018-07-11T08:15:42.165Z,17.60
2018-07-11T08:18:09.876Z,17.50
2018-07-11T08:20:37.466Z,17.70
2018-07-11T08:23:17.798Z,17.80
2018-07-11T08:25:58.961Z,18.10
2018-07-11T08:28:47.557Z,18.50
2018-07-11T08:31:27.334Z,18.60
2018-07-11T08:34:09.594Z,18.80
2018-07-11T08:36:56.446Z,18.90
2018-07-11T08:39:35.175Z,19.30
2018-07-11T08:44:21.082Z,19.40
2018-07-11T08:47:29.538Z,19.00
2018-07-11T08:50:24.113Z,18.20
2018-07-11T08:53:04.938Z,18.30
2018-07-11T08:56:15.566Z,18.40
2018-07-11T09:00:00.402Z,18.50
2018-07-11T09:02:39.367Z,18.30
2018-07-11T09:06:29.911Z,18.30
2018-07-11T09:09:13.173Z,18.60
2018-07-11T09:12:00.790Z,18.90
2018-07-11T09:14:42.234Z,19.10
2018-07-11T09:17:21.266Z,19.10
2018-07-11T09:20:02.236Z,19.30
2018-07-11T09:22:40.966Z,19.50
2018-07-11T09:25:08.532Z,19.90
2018-07-11T09:27:36.158Z,20.10
2018-07-11T09:30:03.822Z,20.30
2018-07-11T09:32:31.534Z,20.40
2018-07-11T09:34:59.159Z,20.20
2018-07-11T09:37:26.858Z,20.10
2018-07-11T09:39:54.477Z,20.10
2018-07-11T09:42:22.112Z,20.00
2018-07-11T09:44:49.941Z,20.10
2018-07-11T09:47:23.258Z,20.20
2018-07-11T09:49:50.921Z,20.30
2018-07-11T09:52:18.730Z,20.40
2018-07-11T09:54:46.817Z,20.50
2018-07-11T09:57:15.418Z,20.60
2018-07-11T09:59:43.626Z,20.90
2018-07-11T10:02:12.149Z,20.90
2018-07-11T10:07:08.067Z,20.80
2018-07-11T10:09:36.449Z,20.50
2018-07-11T10:12:04.261Z,20.40
2018-07-11T10:14:33.449Z,20.30
2018-07-11T10:17:01.105Z,20.30
2018-07-11T10:19:28.723Z,20.30
2018-07-11T10:21:56.515Z,20.50
2018-07-11T10:24:24.090Z,20.90
2018-07-11T10:26:51.873Z,21.50
2018-07-11T10:29:19.881Z,21.90
2018-07-11T10:31:47.549Z,21.90
2018-07-11T10:34:15.116Z,21.50
2018-07-11T10:36:42.745Z,21.20
2018-07-11T10:39:10.459Z,21.70
2018-07-11T10:41:37.965Z,22.20
2018-07-11T10:44:05.646Z,22.60
2018-07-11T10:46:33.448Z,23.10
2018-07-11T10:49:01.193Z,23.20
2018-07-11T10:51:28.869Z,23.20
2018-07-11T10:53:56.482Z,23.10
2018-07-11T10:58:51.825Z,23.00
2018-07-11T11:01:19.566Z,22.80
2018-07-11T11:03:47.277Z,22.90
2018-07-11T11:06:14.879Z,23.30
2018-07-11T11:08:42.446Z,23.20
2018-07-11T11:11:10.011Z,22.80
2018-07-11T11:13:38.305Z,22.70
2018-07-11T11:16:05.915Z,22.80
2018-07-11T11:18:33.473Z,22.80
2018-07-11T11:21:01.250Z,22.80
2018-07-11T11:23:28.841Z,22.70
2018-07-11T11:25:57.295Z,23.00
2018-07-11T11:28:24.909Z,23.30
2018-07-11T11:30:52.523Z,23.30
2018-07-11T11:35:56.252Z,23.20
2018-07-11T11:38:23.881Z,23.50
2018-07-11T11:40:51.556Z,23.70
2018-07-11T11:43:19.169Z,23.70
2018-07-11T11:45:48.094Z,23.80
2018-07-11T11:48:15.682Z,23.90
2018-07-11T11:50:43.271Z,24.10
2018-07-11T11:53:10.882Z,24.00
2018-07-11T11:55:38.521Z,23.50
2018-07-11T11:58:06.213Z,23.20
2018-07-11T12:00:34.273Z,23.40
2018-07-11T12:05:29.689Z,23.60
2018-07-11T12:07:58.065Z,23.40
2018-07-11T12:10:25.764Z,23.90
2018-07-11T12:12:53.461Z,24.50
2018-07-11T12:15:21.046Z,24.90
2018-07-11T12:17:48.676Z,24.90
2018-07-11T12:20:16.253Z,24.40
2018-07-11T12:22:44.141Z,24.00
2018-07-11T12:25:11.799Z,23.70
2018-07-11T12:27:40.181Z,23.10
2018-07-11T12:30:07.879Z,23.00
2018-07-11T12:32:35.532Z,22.90
2018-07-11T12:35:03.157Z,23.50
2018-07-11T12:37:30.873Z,24.50
2018-07-11T12:39:58.630Z,24.60
2018-07-11T12:42:26.381Z,24.30
2018-07-11T12:44:54.001Z,24.10
2018-07-11T12:47:27.418Z,24.20
2018-07-11T12:49:55.385Z,24.50
2018-07-11T12:52:23.045Z,24.60
2018-07-11T12:54:50.709Z,24.50
2018-07-11T12:57:20.812Z,24.40
2018-07-11T12:59:48.536Z,24.40
2018-07-11T13:02:16.194Z,24.20
2018-07-11T13:04:44.238Z,24.20
2018-07-11T13:07:12.030Z,24.60
2018-07-11T13:09:39.629Z,25.10
2018-07-11T13:12:07.332Z,25.50
2018-07-11T13:14:35.099Z,25.90
2018-07-11T13:17:02.730Z,25.90
2018-07-11T13:19:30.395Z,26.30
2018-07-11T13:21:58.869Z,26.70
2018-07-11T13:24:26.661Z,26.20
2018-07-11T13:26:54.241Z,25.90
2018-07-11T13:29:22.370Z,25.60
2018-07-11T13:31:49.961Z,25.30
2018-07-11T13:34:17.690Z,25.50
2018-07-11T13:36:45.297Z,24.90
2018-07-11T13:39:19.136Z,24.80
2018-07-11T13:41:47.489Z,24.90
2018-07-11T13:44:15.118Z,25.10
2018-07-11T13:46:42.719Z,25.50
2018-07-11T13:49:11.814Z,26.10
2018-07-11T13:51:39.774Z,26.60
2018-07-11T13:54:07.612Z,26.70
2018-07-11T13:56:35.701Z,26.70
2018-07-11T13:59:05.248Z,26.60
2018-07-11T14:01:33.357Z,26.20
2018-07-11T14:04:02.271Z,25.90
2018-07-11T14:06:30.023Z,25.10
2018-07-11T14:08:58.001Z,24.90
2018-07-11T14:11:25.814Z,24.90
2018-07-11T14:13:53.513Z,24.60
2018-07-11T14:16:21.621Z,24.40
2018-07-11T14:18:49.319Z,24.40
2018-07-11T14:21:16.937Z,24.40
2018-07-11T14:23:44.556Z,24.30
2018-07-11T14:26:14.018Z,24.10
2018-07-11T14:28:45.309Z,24.00
2018-07-11T14:31:13.173Z,24.00
2018-07-11T14:33:46.073Z,23.80
2018-07-11T14:36:13.706Z,23.50
2018-07-11T14:38:41.299Z,23.30
2018-07-11T14:41:08.929Z,23.20
2018-07-11T14:43:36.543Z,23.10
2018-07-11T14:46:04.252Z,23.00
2018-07-11T14:48:31.848Z,23.00
2018-07-11T14:50:59.714Z,22.90
2018-07-11T14:53:27.314Z,22.80
2018-07-11T14:55:54.976Z,22.60
2018-07-11T14:58:22.565Z,22.50
2018-07-11T15:00:50.257Z,22.40
2018-07-11T15:03:18.001Z,22.30
2018-07-11T15:05:45.676Z,22.20
2018-07-11T15:08:13.476Z,22.20
2018-07-11T15:10:41.080Z,22.20
2018-07-11T15:13:08.720Z,22.20
2018-07-11T15:15:36.420Z,22.20
2018-07-11T15:18:06.298Z,22.10
2018-07-11T15:20:34.445Z,22.00
2018-07-11T15:23:02.033Z,22.10
2018-07-11T15:25:29.661Z,22.10
2018-07-11T15:27:57.318Z,22.00
2018-07-11T15:30:24.947Z,22.00
2018-07-11T15:32:52.586Z,22.00
2018-07-11T15:35:20.365Z,22.00
2018-07-11T15:37:48.037Z,21.90
2018-07-11T15:40:15.769Z,21.80
2018-07-11T15:42:44.305Z,21.60
2018-07-11T15:45:12.490Z,21.10
2018-07-11T15:47:42.721Z,20.50
2018-07-11T15:50:10.274Z,20.10
2018-07-11T15:52:38.098Z,19.80
2018-07-11T15:55:05.677Z,19.70
2018-07-11T15:57:49.006Z,19.60
2018-07-11T16:00:20.409Z,19.70
2018-07-11T16:02:49.601Z,19.70
2018-07-11T16:05:19.505Z,19.80
2018-07-11T16:07:49.128Z,19.80
2018-07-11T16:10:19.511Z,19.70
2018-07-11T16:12:47.158Z,19.70
2018-07-11T16:15:14.886Z,19.50
2018-07-11T16:17:42.453Z,19.50
2018-07-11T16:20:10.014Z,19.50
2018-07-11T16:22:37.629Z,19.40
2018-07-11T16:25:05.729Z,19.50
2018-07-11T16:27:33.419Z,19.50
2018-07-11T16:30:01.065Z,19.50
2018-07-11T16:32:28.705Z,19.70
2018-07-11T16:34:56.321Z,19.80
2018-07-11T16:37:24.091Z,19.80
2018-07-11T16:39:51.798Z,19.90
2018-07-11T16:42:19.514Z,19.80
2018-07-11T16:44:47.677Z,19.90
2018-07-11T16:47:15.964Z,19.90
2018-07-11T16:49:43.577Z,20.00
2018-07-11T16:52:11.393Z,20.10
2018-07-11T16:54:39.121Z,20.10
2018-07-11T16:57:07.945Z,19.90
2018-07-11T16:59:48.498Z,19.90
2018-07-11T17:02:22.997Z,19.90
2018-07-11T17:04:52.784Z,20.00
2018-07-11T17:07:21.707Z,20.00
2018-07-11T17:09:50.673Z,20.10
2018-07-11T17:12:19.589Z,20.00
2018-07-11T17:14:47.805Z,20.20
2018-07-11T17:17:17.613Z,20.30
2018-07-11T17:20:15.729Z,20.40
2018-07-11T17:22:48.690Z,20.40
2018-07-11T17:25:19.352Z,20.40
2018-07-11T17:27:47.561Z,20.40
2018-07-11T17:30:15.685Z,20.30
2018-07-11T17:32:43.909Z,20.30
2018-07-11T17:35:11.533Z,20.30
2018-07-11T17:37:39.303Z,20.30
2018-07-11T17:40:09.146Z,20.30
2018-07-11T17:42:36.777Z,20.20
2018-07-11T17:45:17.429Z,19.90
2018-07-11T17:49:56.967Z,19.60
2018-07-11T17:52:25.359Z,19.50
2018-07-11T17:55:10.605Z,19.40
2018-07-11T17:57:43.493Z,19.20
2018-07-11T18:00:11.285Z,19.20
2018-07-11T18:04:49.034Z,19.00
2018-07-11T18:07:27.348Z,18.90
2018-07-11T18:10:00.708Z,18.80
2018-07-11T18:13:41.674Z,18.80
2018-07-11T18:16:45.785Z,18.70
2018-07-11T18:20:23.611Z,18.70
2018-07-11T18:22:54.030Z,18.70
2018-07-11T18:25:36.985Z,18.80
2018-07-11T18:28:15.589Z,18.80
2018-07-11T18:32:55.954Z,18.80
2018-07-11T18:35:38.582Z,18.70
2018-07-11T18:38:16.706Z,18.60
2018-07-11T18:41:00.683Z,18.40
2018-07-11T18:43:39.501Z,18.40
2018-07-11T18:47:19.957Z,18.40
2018-07-11T18:51:58.739Z,18.30
2018-07-11T18:55:40.617Z,18.30
2018-07-11T18:58:24.953Z,18.30
2018-07-11T19:01:35.715Z,18.40
2018-07-11T19:04:23.806Z,18.40
2018-07-11T19:07:02.593Z,18.40
2018-07-11T19:09:54.682Z,18.40
2018-07-11T19:12:30.173Z,18.40
2018-07-11T19:15:11.940Z,18.40
2018-07-11T19:19:52.805Z,18.30
2018-07-11T19:22:44.309Z,18.40
2018-07-11T19:25:19.982Z,18.50
2018-07-11T19:29:02.864Z,18.50
2018-07-11T19:31:43.184Z,18.50
2018-07-11T19:34:20.620Z,18.30
2018-07-11T19:36:56.697Z,18.20
2018-07-11T19:39:35.449Z,18.10
2018-07-11T19:42:43.402Z,18.10
2018-07-11T19:45:34.425Z,18.10
2018-07-11T19:48:09.784Z,18.10
2018-07-11T19:50:48.704Z,18.20
2018-07-11T19:53:29.309Z,18.10
2018-07-11T19:56:24.117Z,18.00
2018-07-11T19:58:51.673Z,18.00
2018-07-11T20:01:19.314Z,17.90
2018-07-11T20:03:46.998Z,17.90
2018-07-11T20:06:14.613Z,17.90
2018-07-11T20:08:42.456Z,17.90
2018-07-11T20:11:10.026Z,17.90
2018-07-11T20:13:37.672Z,17.90
2018-07-11T20:16:05.357Z,18.00
2018-07-11T20:18:32.921Z,18.00
2018-07-11T20:21:00.549Z,18.00
2018-07-11T20:23:28.782Z,18.00
2018-07-11T20:25:56.486Z,18.00
2018-07-11T20:28:24.319Z,17.90
2018-07-11T20:30:51.942Z,17.90
2018-07-11T20:33:19.566Z,17.90
2018-07-11T20:35:47.169Z,17.90
2018-07-11T20:38:14.801Z,17.90
2018-07-11T20:40:42.465Z,18.00
2018-07-11T20:43:10.054Z,18.00
2018-07-11T20:45:37.682Z,18.00
2018-07-11T20:48:05.318Z,18.00
2018-07-11T20:50:32.881Z,18.00
2018-07-11T20:53:00.564Z,18.10
2018-07-11T20:55:28.314Z,18.10
2018-07-11T20:58:07.463Z,18.00
2018-07-11T21:00:46.521Z,18.00
2018-07-11T21:03:44.897Z,18.10
2018-07-11T21:06:27.410Z,18.00
2018-07-11T21:09:06.503Z,18.00
2018-07-11T21:12:15.165Z,17.90
2018-07-11T21:16:54.832Z,18.00
2018-07-11T21:19:22.423Z,17.90
2018-07-11T21:21:49.982Z,17.90
2018-07-11T21:24:17.561Z,17.90
2018-07-11T21:26:45.129Z,18.00
2018-07-11T21:29:12.742Z,17.90
2018-07-11T21:31:40.281Z,17.90
2018-07-11T21:34:07.858Z,18.00
2018-07-11T21:36:35.622Z,18.00
2018-07-11T21:39:12.000Z,18.10
2018-07-11T21:41:39.747Z,18.00
2018-07-11T21:44:07.289Z,17.90
2018-07-11T21:46:35.399Z,17.90
2018-07-11T21:49:02.997Z,18.00
2018-07-11T21:51:30.645Z,18.10
2018-07-11T21:53:58.251Z,18.10
2018-07-11T21:56:26.245Z,18.00
2018-07-11T21:58:53.927Z,18.10
2018-07-11T22:01:21.637Z,18.00
2018-07-11T22:03:49.207Z,18.00
2018-07-11T22:06:16.848Z,18.10
2018-07-11T22:08:44.443Z,18.00
2018-07-11T22:11:12.196Z,18.00
2018-07-11T22:13:40.470Z,17.90
2018-07-11T22:16:08.166Z,18.00
2018-07-11T22:18:43.177Z,18.00
2018-07-11T22:21:10.643Z,17.90
2018-07-11T22:23:37.164Z,17.90
2018-07-11T22:26:03.716Z,17.80
2018-07-11T22:30:57.299Z,17.60
2018-07-11T22:33:23.811Z,17.50
2018-07-11T22:35:50.533Z,17.40
2018-07-11T22:38:17.085Z,17.50
2018-07-11T22:40:44.143Z,17.50
2018-07-11T22:43:10.684Z,17.40
2018-07-11T22:45:37.197Z,17.30
2018-07-11T22:48:03.737Z,17.20
2018-07-11T22:50:30.520Z,17.20
2018-07-11T22:52:57.172Z,17.20
2018-07-11T22:55:23.788Z,17.10
2018-07-11T22:57:54.146Z,17.20
2018-07-11T23:00:20.647Z,17.20
2018-07-11T23:02:47.161Z,17.10
2018-07-11T23:05:13.663Z,17.20
2018-07-11T23:07:40.185Z,17.20
2018-07-11T23:10:06.733Z,17.30
2018-07-11T23:12:33.978Z,17.20
2018-07-11T23:15:00.498Z,17.20
2018-07-11T23:17:27.235Z,17.30
2018-07-11T23:19:53.747Z,17.30
2018-07-11T23:22:20.285Z,17.30
2018-07-11T23:24:46.824Z,17.30
2018-07-11T23:27:13.448Z,17.30
2018-07-11T23:29:39.929Z,17.30
2018-07-11T23:32:06.432Z,17.30
2018-07-11T23:34:32.965Z,17.30
2018-07-11T23:36:59.465Z,17.30
2018-07-11T23:39:25.990Z,17.30
2018-07-11T23:44:19.538Z,17.30
2018-07-11T23:46:46.062Z,17.30
2018-07-11T23:49:12.596Z,17.50
2018-07-11T23:51:39.103Z,17.50
2018-07-11T23:54:05.622Z,17.40
2018-07-11T23:56:32.197Z,17.40
2018-07-11T23:58:58.720Z,17.40
